Flight Track Log - Related Links

Times and Time Zones

All times are in EST time to prevent confusion due to time zone crossing. See the N45EJ flight status page for this flight to view local times or setup timezone preferences in your user account.

Time Position Orientation Groundspeed Altitude Reporting Facility
EST Latitude Longitude Course Direction KTS MPH feet Rate Location/Type
Sun 12:22:36 PM 42.1517 -87.9231 304° West 165 190 40,000  Level Chicago Center
Sun 12:23:37 PM 42.1811 -87.9814 304° West 231 266 3,600 -17,463 Descending Chicago Center
Sun 12:24:39 PM 42.1981 -88.0678 285° West 238 274 4,200 1,756 Climbing Chicago Center
Sun 12:25:40 PM 42.1656 -88.1717 247° West 253 291 7,200 3,268 Climbing Chicago Center
Sun 12:26:42 PM 42.1397 -88.2614 249° West 269 310 10,900 3,097 Climbing Chicago Center
Sun 12:27:44 PM 42.1397 -88.3603 270° West 269 310 13,600 2,488 Climbing Chicago Center
Sun 12:28:45 PM 42.1225 -88.4642 257° West 283 326 16,000 2,098 Climbing Chicago Center
Sun 12:29:47 PM 42.1056 -88.5772 259° West 302 348 17,900 2,098 Climbing Chicago Center
Sun 12:30:48 PM 42.0875 -88.6964 258° West 321 369 20,300 2,439 Climbing Chicago Center
Sun 12:31:50 PM 42.0678 -88.8458 260° West 337 388 22,900 1,839 Climbing Chicago Center
Sun 12:32:52 PM 42.0506 -88.9792 260° West 356 410 24,100 2,244 Climbing Chicago Center
Sun 12:33:53 PM 42.0442 -89.1111 266° West 356 410 27,500 2,927 Climbing Chicago Center
Sun 12:34:55 PM 42.0408 -89.2358 268° West 340 391 30,100 2,129 Climbing Chicago Center
Sun 12:35:57 PM 42.0394 -89.3539 269° West 321 369 31,900 1,171 Climbing Chicago Center
Sun 12:36:58 PM 42.0364 -89.4764 268° West 331 381 32,500 537 Climbing Chicago Center
Sun 12:38:00 PM 42.0594 -89.6331 281° West 362 417 33,000 439 Climbing Chicago Center
Sun 12:39:01 PM 42.0894 -89.7767 286° West 396 456 33,400 927 Climbing Chicago Center
Sun 12:40:03 PM 42.0919 -89.9042 272° West 344 396 34,900 1,597 Climbing Chicago Center
Sun 12:41:05 PM 42.0858 -90.0225 266° West 335 386 36,700 1,548 Climbing Chicago Center
Sun 12:42:07 PM 42.0822 -90.1400 268° West 321 369 38,100 1,073 Climbing Chicago Center
Sun 12:43:08 PM 42.0783 -90.2558 267° West 313 360 38,900 829 Climbing Chicago Center
Sun 12:44:10 PM 42.0744 -90.3956 268° West 313 360 39,800 532 Climbing Chicago Center
Sun 12:45:12 PM 42.0686 -90.5158 266° West 320 368 40,000 98 Climbing Chicago Center
Sun 12:46:13 PM 42.0639 -90.6403 267° West 331 381 40,000  Level Chicago Center
Sun 12:47:15 PM 42.0597 -90.7733 268° West 353 406 40,000  Level Chicago Center
Sun 12:48:16 PM 42.0533 -90.9106 266° West 365 420 40,000  Level Chicago Center
Sun 12:49:18 PM 42.0472 -91.0464 267° West 367 422 40,000  Level Chicago Center
Sun 12:50:20 PM 42.0417 -91.1856 267° West 373 429 40,000  Level Chicago Center
Sun 12:51:21 PM 42.0347 -91.3511 267° West 371 427 40,000  Level Chicago Center
Sun 12:52:23 PM 42.0278 -91.4900 266° West 373 429 40,000  Level Chicago Center
Sun 12:53:25 PM 42.0219 -91.6281 267° West 372 428 40,000  Level Chicago Center
Sun 12:54:27 PM 42.0156 -91.7672 267° West 373 429 40,000  Level Chicago Center
Sun 12:55:28 PM 42.0086 -91.9044 266° West 371 427 40,000  Level Chicago Center
Sun 12:56:30 PM 42.0025 -92.0431 267° West 371 427 40,000  Level Chicago Center
Sun 12:57:32 PM 41.9944 -92.1822 266° West 373 429 40,000  Level Chicago Center
Sun 12:58:33 PM 41.9856 -92.3503 266° West 376 433 40,000  Level Chicago Center
Sun 12:59:35 PM 41.9781 -92.4906 266° West 378 435 40,000  Level Chicago Center
Sun 01:00:37 PM 41.9703 -92.6289 266° West 373 429 40,000  Level Chicago Center
Sun 01:01:38 PM 41.9631 -92.7669 266° West 374 430 40,000  Level Chicago Center
Sun 01:02:40 PM 41.9544 -92.9047 265° West 372 428 40,000  Level Chicago Center
Sun 01:03:18 PM 41.9514 -92.9897 267° West 373 429 40,000  Level Minneapolis Center
Sun 01:04:20 PM 41.9406 -93.1358 264° West 376 433 40,000  Level Minneapolis Center
Sun 01:05:21 PM 41.9319 -93.2761 265° West 378 435 40,000  Level Minneapolis Center
Sun 01:06:23 PM 41.9231 -93.4444 266° West 379 436 40,000  Level Minneapolis Center
Sun 01:07:25 PM 41.9128 -93.5839 264° West 378 435 40,000  Level Minneapolis Center
Sun 01:08:27 PM 41.9039 -93.7250 265° West 383 441 40,000  Level Minneapolis Center
Sun 01:09:29 PM 41.8939 -93.8725 265° West 384 442 40,000  Level Minneapolis Center
Sun 01:10:31 PM 41.8850 -94.0178 265° West 389 448 40,000  Level Minneapolis Center
Sun 01:11:33 PM 41.8747 -94.1619 265° West 390 449 40,000  Level Minneapolis Center
Sun 01:12:35 PM 41.8647 -94.3081 265° West 392 451 40,000  Level Minneapolis Center
Sun 01:13:36 PM 41.8528 -94.4819 265° West 391 450 40,000  Level Minneapolis Center
Sun 01:14:38 PM 41.8417 -94.6281 264° West 394 453 40,000  Level Minneapolis Center
Sun 01:15:40 PM 41.8314 -94.7767 265° West 400 460 40,000  Level Minneapolis Center
Sun 01:16:42 PM 41.8200 -94.9253 264° West 401 461 40,000  Level Minneapolis Center
Sun 01:17:44 PM 41.8086 -95.0717 264° West 398 458 40,000  Level Minneapolis Center
Sun 01:18:45 PM 41.7972 -95.2203 264° West 401 461 40,000  Level Minneapolis Center
Sun 01:19:47 PM 41.7858 -95.3681 264° West 401 461 40,000  Level Minneapolis Center
Sun 01:20:49 PM 41.7711 -95.5439 264° West 398 458 40,000  Level Minneapolis Center
Sun 01:21:51 PM 41.7589 -95.6908 264° West 399 459 40,000  Level Minneapolis Center
Sun 01:22:53 PM 41.7461 -95.8375 263° West 399 459 40,000  Level Minneapolis Center
Sun 01:23:54 PM 41.7333 -95.9839 263° West 400 460 40,000  Level Minneapolis Center
Sun 01:24:56 PM 41.7219 -96.1317 264° West 402 463 40,000  Level Minneapolis Center
Sun 01:25:58 PM 41.7058 -96.3114 263° West 408 470 40,000  Level Minneapolis Center
Sun 01:27:00 PM 41.6931 -96.4625 264° West 411 473 40,000  Level Minneapolis Center
Sun 01:28:01 PM 41.6786 -96.6131 263° West 410 472 40,000  Level Minneapolis Center
Sun 01:29:03 PM 41.6650 -96.7631 263° West 410 472 40,000  Level Minneapolis Center
Sun 01:30:05 PM 41.6511 -96.9144 263° West 411 473 40,000  Level Minneapolis Center
Sun 01:31:07 PM 41.6369 -97.0667 263° West 412 474 40,000  Level Minneapolis Center
Sun 01:32:08 PM 41.6214 -97.2169 262° West 411 473 40,000  Level Minneapolis Center
Sun 01:33:10 PM 41.6047 -97.3989 263° West 412 474 40,000  Level Minneapolis Center
Sun 01:34:12 PM 41.5892 -97.5511 262° West 413 475 40,000  Level Minneapolis Center
Sun 01:35:13 PM 41.5742 -97.7042 263° West 415 478 40,000  Level Minneapolis Center
Sun 01:36:15 PM 41.5589 -97.8578 262° West 416 479 40,000  Level Minneapolis Center
Sun 01:37:17 PM 41.5433 -98.0114 262° West 418 481 40,000  Level Minneapolis Center
Sun 01:38:19 PM 41.5264 -98.1803 262° West 420 483 40,000  Level Minneapolis Center
Sun 01:39:20 PM 41.5097 -98.3342 262° West 421 484 40,000  Level Minneapolis Center
Sun 01:40:22 PM 41.4914 -98.5050 262° West 420 483 40,000  Level Minneapolis Center
Sun 01:41:24 PM 41.4742 -98.6589 262° West 419 482 40,000  Level Minneapolis Center
Sun 01:42:26 PM 41.4575 -98.8125 262° West 419 482 40,000  Level Minneapolis Center
Sun 01:43:27 PM 41.4411 -98.9672 262° West 422 486 40,000  Level Minneapolis Center
Sun 01:44:26 PM 41.4225 -99.1267 261° West 415 478 40,000  Level Denver Center
Sun 01:45:28 PM 41.4044 -99.2781 261° West 416 479 40,000  Level Denver Center
Sun 01:46:30 PM 41.3869 -99.4325 261° West 422 486 40,000  Level Denver Center
Sun 01:47:33 PM 41.3692 -99.5875 261° West 424 488 40,000  Level Denver Center
Sun 01:48:35 PM 41.3497 -99.7472 261° West 428 493 40,000  Level Denver Center
Sun 01:49:37 PM 41.3283 -99.9222 261° West 429 494 40,000  Level Denver Center
Sun 01:50:39 PM 41.3114 -100.0714 261° West 428 493 40,000  Level Denver Center
Sun 01:51:41 PM 41.2903 -100.2444 261° West 427 491 40,000  Level Denver Center
Sun 01:52:43 PM 41.2717 -100.3925 261° West 426 490 40,000  Level Denver Center
Sun 01:53:45 PM 41.2503 -100.5650 261° West 427 491 40,000  Level Denver Center
Sun 01:54:47 PM 41.2311 -100.7128 260° West 427 491 40,000  Level Denver Center
Sun 01:55:49 PM 41.2097 -100.8839 261° West 424 488 40,000  Level Denver Center
Sun 01:56:51 PM 41.1897 -101.0317 260° West 426 490 40,000  Level Denver Center
Sun 01:57:53 PM 41.1675 -101.1992 260° West 417 480 40,000  Level Denver Center
Sun 01:58:55 PM 41.1503 -101.3422 261° West 414 476 40,000  Level Denver Center
Sun 01:59:57 PM 41.1272 -101.5064 259° West 408 470 40,000  Level Denver Center
Sun 02:01:00 PM 41.1086 -101.6472 260° West 407 468 40,000  Level Denver Center
Sun 02:02:02 PM 41.0869 -101.8147 260° West 412 474 40,000  Level Denver Center
Sun 02:03:04 PM 41.0658 -101.9600 259° West 418 481 40,000  Level Denver Center
Sun 02:04:06 PM 41.0417 -102.1311 259° West 424 488 40,000  Level Denver Center
Sun 02:05:08 PM 41.0200 -102.2792 259° West 427 491 40,000  Level Denver Center
Sun 02:06:10 PM 40.9944 -102.4531 259° West 431 496 40,000  Level Denver Center
Sun 02:07:12 PM 40.9728 -102.5986 259° West 425 489 40,000  Level Denver Center
Sun 02:08:14 PM 40.9497 -102.7656 260° West 414 476 40,000  Level Denver Center
Sun 02:09:16 PM 40.9281 -102.9081 259° West 414 476 40,000  Level Denver Center
Sun 02:10:18 PM 40.9064 -103.0517 259° West 415 478 40,000  Level Denver Center
Sun 02:11:20 PM 40.8803 -103.2278 259° West 410 472 40,000  Level Denver Center
Sun 02:12:22 PM 40.8575 -103.3764 259° West 414 476 40,000  Level Denver Center
Sun 02:13:24 PM 40.8353 -103.5261 259° West 416 479 40,000  Level Denver Center
Sun 02:14:26 PM 40.8122 -103.6756 259° West 417 480 40,000  Level Denver Center
Sun 02:15:29 PM 40.7889 -103.8244 258° West 416 479 40,000  Level Denver Center
Sun 02:16:31 PM 40.7606 -104.0025 258° West 416 479 40,000  Level Denver Center
Sun 02:17:33 PM 40.7378 -104.1517 259° West 416 479 40,000  Level Denver Center
Sun 02:18:35 PM 40.7131 -104.3047 258° West 428 493 40,000  Level Denver Center
Sun 02:19:37 PM 40.6886 -104.4531 258° West 421 484 40,000  Level Denver Center
Sun 02:20:39 PM 40.6642 -104.6022 258° West 419 482 40,000  Level Denver Center
Sun 02:21:41 PM 40.6350 -104.7808 258° West 419 482 40,000  Level Denver Center
Sun 02:22:43 PM 40.6092 -104.9289 257° West 418 481 40,000  Level Denver Center
Sun 02:23:45 PM 40.5844 -105.0803 258° West 424 488 40,000  Level Denver Center
Sun 02:24:47 PM 40.5592 -105.2303 258° West 423 487 40,000  Level Denver Center
Sun 02:25:49 PM 40.5328 -105.3806 257° West 424 488 40,000  Level Denver Center
Sun 02:26:52 PM 40.5075 -105.5294 257° West 421 484 40,000  Level Denver Center
Sun 02:27:54 PM 40.4758 -105.7111 257° West 426 490 40,000  Level Denver Center
Sun 02:28:56 PM 40.4494 -105.8614 257° West 425 489 40,000  Level Denver Center
Sun 02:29:58 PM 40.4239 -106.0128 258° West 426 490 40,000  Level Denver Center
Sun 02:31:00 PM 40.3939 -106.1686 256° West 425 489 40,000  Level Denver Center
Sun 02:32:02 PM 40.3653 -106.3403 258° West 430 495 40,000  Level Denver Center
Sun 02:33:04 PM 40.3389 -106.4847 257° West 427 491 40,000  Level Denver Center
Sun 02:34:06 PM 40.3125 -106.6261 256° West 425 489 40,000  Level Denver Center
Sun 02:35:49 PM 40.2631 -106.8933 256° West 422 486 40,000  Level Salt Lake Center
Sun 02:36:51 PM 40.2303 -107.0661 256° West 442 509 40,000  Level Salt Lake Center
Sun 02:37:53 PM 40.2036 -107.2169 257° West 444 511 40,000  Level Salt Lake Center
Sun 02:38:55 PM 40.1700 -107.3892 256° West 441 507 40,000  Level Salt Lake Center
Sun 02:39:57 PM 40.1428 -107.5369 256° West 438 504 40,000  Level Salt Lake Center
Sun 02:40:59 PM 40.1097 -107.7081 256° West 436 502 40,000  Level Salt Lake Center
Sun 02:42:01 PM 40.0808 -107.8550 256° West 437 503 40,000  Level Salt Lake Center
Sun 02:43:03 PM 40.0717 -108.0253 266° West 422 486 40,000  Level Salt Lake Center
Sun 02:44:06 PM 40.0783 -108.1678 274° West 414 476 40,000  Level Salt Lake Center
Sun 02:45:07 PM 40.0861 -108.3325 274° West 411 473 40,000  Level Salt Lake Center
Sun 02:46:09 PM 40.0917 -108.4750 273° West 411 473 40,000  Level Salt Lake Center
Sun 02:47:11 PM 40.0989 -108.6425 273° West 416 479 40,000  Level Salt Lake Center
Sun 02:48:14 PM 40.1042 -108.7869 273° West 418 481 40,000  Level Salt Lake Center
Sun 02:49:16 PM 40.1108 -108.9539 273° West 416 479 40,000  Level Salt Lake Center
Sun 02:50:18 PM 40.1164 -109.0939 273° West 409 471 40,000  Level Salt Lake Center
Sun 02:51:20 PM 40.1214 -109.2569 272° West 405 466 40,000 -290 Level Salt Lake Center
Sun 02:52:22 PM 40.1272 -109.3978 273° West 406 467 39,400 -677 Descending Salt Lake Center
Sun 02:53:24 PM 40.1322 -109.5592 272° West 400 460 38,600 -1,113 Descending Salt Lake Center
Sun 02:54:26 PM 40.1358 -109.6919 272° West 388 447 37,100 -1,548 Descending Salt Lake Center
Sun 02:55:28 PM 40.1425 -109.8539 273° West 399 459 35,400 -1,500 Descending Salt Lake Center
Sun 02:56:30 PM 40.1453 -109.9994 271° West 416 479 34,000 -1,500 Descending Salt Lake Center
Sun 02:57:32 PM 40.1494 -110.1706 272° West 421 484 32,300 -1,500 Descending Salt Lake Center
Sun 02:58:34 PM 40.1469 -110.3172 269° West 422 486 30,900 -1,161 Descending Salt Lake Center
Sun 02:59:36 PM 40.1461 -110.4617 270° West 418 481 29,900 -1,258 Descending Salt Lake Center
Sun 03:00:38 PM 40.1453 -110.6206 270° West 395 455 28,300 -1,452 Descending Salt Lake Center
Sun 03:01:40 PM 40.1431 -110.7556 269° West 392 451 26,900 -1,403 Descending Salt Lake Center
Sun 03:02:42 PM 40.1408 -110.9089 269° West 381 438 25,400 -1,355 Descending Salt Lake Center
Sun 03:03:44 PM 40.1400 -111.0344 270° West 376 433 24,100 -1,403 Descending Salt Lake Center
Sun 03:04:46 PM 40.1372 -111.1967 269° West 374 430 22,500 -1,452 Descending Salt Lake Center
Sun 03:05:48 PM 40.1342 -111.3289 268° West 367 422 21,100 -1,366 Descending Salt Lake Center
Sun 03:06:49 PM 40.1278 -111.4725 267° West 353 406 19,700 -1,258 Descending Salt Lake Center
Sun 03:06:50 PM 40.1322 -111.4586 67° East 358 412 19,800 -764 Climbing Salt Lake Center
Sun 03:07:44 PM 40.1364 -111.5792 273° West 335 386 19,000 -774 Descending Salt Lake Center
Sun 03:07:52 PM 40.1417 -111.5803 351° North 334 384 19,000 -896 Level Salt Lake Center
Sun 03:08:51 PM 40.1819 -111.6983 294° West 315 362 18,000 -871 Descending Salt Lake Center
Sun 03:08:54 PM 40.1825 -111.6853 87° East 324 373 18,100 -554 Climbing Salt Lake Center
Sun 03:09:56 PM 40.2203 -111.7917 295° West 324 373 17,400 -750 Descending Salt Lake Center
Sun 03:09:58 PM 40.2244 -111.8133 284° West 312 359 17,300 -871 Descending Salt Lake Center
Sun 03:10:58 PM 40.2586 -111.8953 299° West 318 366 16,500 -1,082 Descending Salt Lake Center
Sun 03:10:59 PM 40.2622 -111.9158 283° West 319 367 16,200 -1,452 Descending Salt Lake Center
Sun 03:12:00 PM 40.3333 -111.9928 320° Northwest 317 365 15,000 -595 Descending Salt Lake Center
Sun 03:13:00 PM 40.4111 -112.0483 331° Northwest 316 364 15,000  Level Salt Lake Center
Sun 03:13:02 PM 40.4108 -112.0433 94° East 316 364 15,000 -1,091 Level Salt Lake Center
Sun 03:13:55 PM 40.4894 -112.0642 349° North 316 364 14,000 -857 Descending Salt Lake Center
Sun 03:14:05 PM 40.4958 -112.0608 22° Northeast 310 357 14,100 -787 Climbing Salt Lake Center
Sun 03:14:56 PM 40.5775 -112.0739 353° North 311 358 13,200 -968 Descending Salt Lake Center
Sun 03:15:07 PM 40.5825 -112.0717 19° North 309 356 13,100 -1,574 Descending Salt Lake Center
Sun 03:15:57 PM 40.6617 -112.0850 353° North 306 352 11,600 -1,475 Descending Salt Lake Center
Sun 03:16:08 PM 40.6675 -112.0814 25° Northeast 306 352 11,600 -537 Level Salt Lake Center
Sun 03:17:04 PM 40.7406 -112.0925 353° North 223 257 11,000 -581 Descending Salt Lake Center
Sun 03:17:10 PM 40.7383 -112.0894 134° Southeast 237 273 11,000 -500 Level Salt Lake Center
Sun 03:18:04 PM 40.8042 -112.0992 354° North 230 265 10,500 -677 Descending Salt Lake Center
Sun 03:18:12 PM 40.8131 -112.0986 North 226 260 10,300 -1,309 Descending Salt Lake Center
Sun 03:18:59 PM 40.8614 -112.1053 354° North 232 267 9,300 -1,161 Descending Salt Lake Center
Sun 03:19:14 PM 40.8772 -112.1067 356° North 230 265 9,100 -935 Descending Salt Lake Center
Sun 03:20:16 PM 40.9406 -112.1142 355° North 227 261 8,100 -653 Descending Salt Lake Center
Sun 03:20:55 PM 40.9847 -112.1203 354° North 227 261 8,000 -97 Descending Salt Lake Center
Sun 03:21:18 PM 41.0044 -112.1217 357° North 228 262 8,000  Level Salt Lake Center
Sun 03:21:56 PM 41.0467 -112.1278 354° North 225 259 8,000  Level Salt Lake Center
Sun 03:22:20 PM 41.0661 -112.1289 358° North 222 255 8,000  Level Salt Lake Center
Sun 03:23:02 PM 41.0983 -112.0958 38° Northeast 218 251 8,000  Level Salt Lake Center
Sun 03:23:22 PM 41.1039 -112.0756 70° East 222 255 8,000  Level Salt Lake Center
Sun 03:23:57 PM 41.0942 -112.0292 106° East 233 268 8,000  Level Salt Lake Center
Sun 03:24:24 PM 41.0733 -112.0253 172° South 226 260 8,000 98 Level Salt Lake Center
Sun 03:24:58 PM 41.0350 -112.0236 178° South 206 237 8,100  Climbing Salt Lake Center
Sun 03:25:26 PM 41.0069 -112.0231 179° South 201 231 8,000 -492 Descending Salt Lake Center
Sun 03:25:59 PM 40.9783 -112.0203 176° South 193 222 7,600 -871 Descending Salt Lake Center
Sun 03:26:28 PM 40.9531 -112.0161 173° South 197 227 7,100 -1,100 Descending Salt Lake Center
Sun 03:26:59 PM 40.9231 -112.0133 176° South 200 230 6,500 -968 Descending Salt Lake Center
Sun 03:27:30 PM 40.8997 -112.0103 174° South 194 223 6,100 -984 Descending Salt Lake Center
Sun 03:28:00 PM 40.8706 -112.0086 178° South 186 214 5,500 -968 Descending Salt Lake Center
Sun 03:28:32 PM 40.8489 -112.0044 172° South 186 214 5,100 -787 Descending Salt Lake Center
Sun 03:29:01 PM 40.8258 -112.0011 174° South 144 166 4,700 -667 Descending Salt Lake Center
Sun 03:29:35 PM 40.8106 -111.9989 174° South 141 162 4,400 -529 Descending Salt Lake Center
Sun 03:31:00 PM 40.7884 -111.9778 North  Level Estimated

Login

Don't have an account? Register now (free) for customized features, flight alerts, and more!